sensor_id;sensor_type;location;lat;lon;timestamp;P1;durP1;ratioP1;P2;durP2;ratioP2
72427;SDS011;60419;48.880;18.036;2022-10-18T00:00:34;11.07;;;6.93;;
72427;SDS011;60419;48.880;18.036;2022-10-18T00:03:19;11.85;;;6.97;;
72427;SDS011;60419;48.880;18.036;2022-10-18T00:06:05;11.73;;;6.80;;
72427;SDS011;60419;48.880;18.036;2022-10-18T00:08:53;14.82;;;6.45;;
72427;SDS011;60419;48.880;18.036;2022-10-18T00:11:38;9.82;;;5.93;;
72427;SDS011;60419;48.880;18.036;2022-10-18T00:14:24;14.25;;;6.55;;
72427;SDS011;60419;48.880;18.036;2022-10-18T00:17:09;11.52;;;6.20;;
72427;SDS011;60419;48.880;18.036;2022-10-18T00:19:55;12.27;;;7.18;;
72427;SDS011;60419;48.880;18.036;2022-10-18T00:22:40;13.70;;;6.47;;
72427;SDS011;60419;48.880;18.036;2022-10-18T00:25:25;12.30;;;6.45;;
72427;SDS011;60419;48.880;18.036;2022-10-18T00:28:11;9.90;;;6.25;;
72427;SDS011;60419;48.880;18.036;2022-10-18T00:30:56;13.43;;;6.90;;
72427;SDS011;60419;48.880;18.036;2022-10-18T00:33:42;15.13;;;5.80;;
72427;SDS011;60419;48.880;18.036;2022-10-18T00:36:29;10.57;;;6.22;;
72427;SDS011;60419;48.880;18.036;2022-10-18T00:39:17;11.10;;;6.10;;
72427;SDS011;60419;48.880;18.036;2022-10-18T00:42:04;11.38;;;6.53;;
72427;SDS011;60419;48.880;18.036;2022-10-18T00:47:34;8.90;;;6.30;;
72427;SDS011;60419;48.880;18.036;2022-10-18T00:50:21;10.10;;;6.00;;
72427;SDS011;60419;48.880;18.036;2022-10-18T00:53:12;11.13;;;6.75;;
72427;SDS011;60419;48.880;18.036;2022-10-18T00:56:00;12.02;;;6.40;;
72427;SDS011;60419;48.880;18.036;2022-10-18T00:58:46;10.00;;;5.90;;
72427;SDS011;60419;48.880;18.036;2022-10-18T01:01:33;10.98;;;6.53;;
72427;SDS011;60419;48.880;18.036;2022-10-18T01:04:18;10.25;;;6.28;;
72427;SDS011;60419;48.880;18.036;2022-10-18T01:10:09;11.73;;;6.80;;
72427;SDS011;60419;48.880;18.036;2022-10-18T01:19:04;12.90;;;6.95;;
72427;SDS011;60419;48.880;18.036;2022-10-18T01:22:12;11.98;;;6.38;;
72427;SDS011;60419;48.880;18.036;2022-10-18T01:28:07;15.68;;;6.70;;
72427;SDS011;60419;48.880;18.036;2022-10-18T01:30:59;20.17;;;6.25;;
72427;SDS011;60419;48.880;18.036;2022-10-18T01:33:50;9.85;;;5.57;;
72427;SDS011;60419;48.880;18.036;2022-10-18T01:36:42;15.95;;;6.20;;
72427;SDS011;60419;48.880;18.036;2022-10-18T01:39:32;12.48;;;7.00;;
72427;SDS011;60419;48.880;18.036;2022-10-18T01:42:22;13.63;;;5.82;;
72427;SDS011;60419;48.880;18.036;2022-10-18T01:45:08;10.18;;;5.93;;
72427;SDS011;60419;48.880;18.036;2022-10-18T01:47:56;8.65;;;5.78;;
72427;SDS011;60419;48.880;18.036;2022-10-18T01:50:43;10.45;;;6.15;;
72427;SDS011;60419;48.880;18.036;2022-10-18T01:53:30;12.95;;;6.60;;
72427;SDS011;60419;48.880;18.036;2022-10-18T01:56:24;12.60;;;6.13;;
72427;SDS011;60419;48.880;18.036;2022-10-18T02:05:37;11.23;;;6.03;;
72427;SDS011;60419;48.880;18.036;2022-10-18T02:08:27;10.30;;;6.05;;
72427;SDS011;60419;48.880;18.036;2022-10-18T02:11:14;9.85;;;5.97;;
72427;SDS011;60419;48.880;18.036;2022-10-18T02:14:04;9.38;;;6.32;;
72427;SDS011;60419;48.880;18.036;2022-10-18T02:16:56;14.43;;;6.15;;
72427;SDS011;60419;48.880;18.036;2022-10-18T02:19:46;10.73;;;6.18;;
72427;SDS011;60419;48.880;18.036;2022-10-18T02:22:34;12.73;;;6.22;;
72427;SDS011;60419;48.880;18.036;2022-10-18T02:25:26;10.52;;;6.20;;
72427;SDS011;60419;48.880;18.036;2022-10-18T02:28:14;9.52;;;6.03;;
72427;SDS011;60419;48.880;18.036;2022-10-18T02:31:02;12.27;;;5.28;;
72427;SDS011;60419;48.880;18.036;2022-10-18T02:33:59;8.63;;;5.47;;
72427;SDS011;60419;48.880;18.036;2022-10-18T02:37:00;9.55;;;5.55;;
72427;SDS011;60419;48.880;18.036;2022-10-18T02:39:47;8.75;;;5.15;;
72427;SDS011;60419;48.880;18.036;2022-10-18T02:42:35;11.77;;;5.43;;
72427;SDS011;60419;48.880;18.036;2022-10-18T02:45:22;9.48;;;5.50;;
72427;SDS011;60419;48.880;18.036;2022-10-18T02:48:09;10.35;;;5.28;;
72427;SDS011;60419;48.880;18.036;2022-10-18T02:50:54;11.10;;;5.30;;
72427;SDS011;60419;48.880;18.036;2022-10-18T02:53:40;11.13;;;5.50;;
72427;SDS011;60419;48.880;18.036;2022-10-18T02:56:25;10.90;;;5.15;;
72427;SDS011;60419;48.880;18.036;2022-10-18T02:59:10;11.55;;;5.10;;
72427;SDS011;60419;48.880;18.036;2022-10-18T03:01:56;10.65;;;5.32;;
72427;SDS011;60419;48.880;18.036;2022-10-18T03:04:41;9.52;;;5.30;;
72427;SDS011;60419;48.880;18.036;2022-10-18T03:07:27;10.43;;;5.35;;
72427;SDS011;60419;48.880;18.036;2022-10-18T03:10:12;9.55;;;4.90;;
72427;SDS011;60419;48.880;18.036;2022-10-18T03:12:58;11.15;;;5.40;;
72427;SDS011;60419;48.880;18.036;2022-10-18T03:15:43;9.65;;;4.80;;
72427;SDS011;60419;48.880;18.036;2022-10-18T03:18:28;13.13;;;5.32;;
72427;SDS011;60419;48.880;18.036;2022-10-18T03:21:14;10.07;;;5.43;;
72427;SDS011;60419;48.880;18.036;2022-10-18T03:23:59;10.23;;;4.53;;
72427;SDS011;60419;48.880;18.036;2022-10-18T03:26:46;9.63;;;5.30;;
72427;SDS011;60419;48.880;18.036;2022-10-18T03:29:31;11.95;;;5.05;;
72427;SDS011;60419;48.880;18.036;2022-10-18T03:32:16;12.27;;;6.03;;
72427;SDS011;60419;48.880;18.036;2022-10-18T03:35:03;11.00;;;5.10;;
72427;SDS011;60419;48.880;18.036;2022-10-18T03:37:51;8.48;;;4.65;;
72427;SDS011;60419;48.880;18.036;2022-10-18T03:40:36;8.10;;;4.88;;
72427;SDS011;60419;48.880;18.036;2022-10-18T03:43:22;10.70;;;4.95;;
72427;SDS011;60419;48.880;18.036;2022-10-18T03:46:07;10.77;;;5.30;;
72427;SDS011;60419;48.880;18.036;2022-10-18T03:48:52;8.45;;;5.32;;
72427;SDS011;60419;48.880;18.036;2022-10-18T03:51:38;7.28;;;5.00;;
72427;SDS011;60419;48.880;18.036;2022-10-18T03:54:23;12.65;;;5.28;;
72427;SDS011;60419;48.880;18.036;2022-10-18T03:57:09;10.27;;;4.95;;
72427;SDS011;60419;48.880;18.036;2022-10-18T03:59:54;12.30;;;5.18;;
72427;SDS011;60419;48.880;18.036;2022-10-18T04:02:39;12.88;;;5.63;;
72427;SDS011;60419;48.880;18.036;2022-10-18T04:05:25;10.52;;;5.30;;
72427;SDS011;60419;48.880;18.036;2022-10-18T04:08:15;9.93;;;5.15;;
72427;SDS011;60419;48.880;18.036;2022-10-18T04:11:05;10.77;;;5.15;;
72427;SDS011;60419;48.880;18.036;2022-10-18T04:13:55;10.30;;;5.43;;
72427;SDS011;60419;48.880;18.036;2022-10-18T04:16:40;8.43;;;4.90;;
72427;SDS011;60419;48.880;18.036;2022-10-18T04:19:25;13.30;;;5.10;;
72427;SDS011;60419;48.880;18.036;2022-10-18T04:22:11;10.85;;;5.13;;
72427;SDS011;60419;48.880;18.036;2022-10-18T04:24:57;12.50;;;5.43;;
72427;SDS011;60419;48.880;18.036;2022-10-18T04:27:42;10.60;;;5.55;;
72427;SDS011;60419;48.880;18.036;2022-10-18T04:30:28;8.77;;;5.55;;
72427;SDS011;60419;48.880;18.036;2022-10-18T04:33:13;9.48;;;5.10;;
72427;SDS011;60419;48.880;18.036;2022-10-18T04:35:58;9.02;;;5.07;;
72427;SDS011;60419;48.880;18.036;2022-10-18T04:38:44;11.73;;;5.90;;
72427;SDS011;60419;48.880;18.036;2022-10-18T04:41:29;9.40;;;5.75;;
72427;SDS011;60419;48.880;18.036;2022-10-18T04:44:14;9.27;;;5.68;;
72427;SDS011;60419;48.880;18.036;2022-10-18T04:47:00;10.52;;;5.45;;
72427;SDS011;60419;48.880;18.036;2022-10-18T04:49:45;9.60;;;5.90;;
72427;SDS011;60419;48.880;18.036;2022-10-18T04:52:31;10.10;;;5.53;;
72427;SDS011;60419;48.880;18.036;2022-10-18T04:55:16;13.30;;;9.30;;
72427;SDS011;60419;48.880;18.036;2022-10-18T04:58:01;18.83;;;10.00;;
72427;SDS011;60419;48.880;18.036;2022-10-18T05:00:47;17.95;;;10.38;;
72427;SDS011;60419;48.880;18.036;2022-10-18T05:03:33;16.58;;;10.50;;
72427;SDS011;60419;48.880;18.036;2022-10-18T05:06:19;19.55;;;10.60;;
72427;SDS011;60419;48.880;18.036;2022-10-18T05:09:05;20.02;;;10.65;;
72427;SDS011;60419;48.880;18.036;2022-10-18T05:11:50;24.10;;;11.68;;
72427;SDS011;60419;48.880;18.036;2022-10-18T05:14:35;22.85;;;11.77;;
72427;SDS011;60419;48.880;18.036;2022-10-18T05:17:21;22.48;;;11.40;;
72427;SDS011;60419;48.880;18.036;2022-10-18T05:20:06;24.17;;;11.98;;
72427;SDS011;60419;48.880;18.036;2022-10-18T05:22:52;23.73;;;13.32;;
72427;SDS011;60419;48.880;18.036;2022-10-18T05:25:38;22.38;;;12.43;;
72427;SDS011;60419;48.880;18.036;2022-10-18T05:28:23;19.73;;;12.35;;
72427;SDS011;60419;48.880;18.036;2022-10-18T05:31:09;25.73;;;12.35;;
72427;SDS011;60419;48.880;18.036;2022-10-18T05:33:55;29.52;;;13.63;;
72427;SDS011;60419;48.880;18.036;2022-10-18T05:36:41;21.30;;;13.02;;
72427;SDS011;60419;48.880;18.036;2022-10-18T05:39:26;19.55;;;12.10;;
72427;SDS011;60419;48.880;18.036;2022-10-18T05:42:12;22.30;;;11.82;;
72427;SDS011;60419;48.880;18.036;2022-10-18T05:44:57;21.15;;;12.00;;
72427;SDS011;60419;48.880;18.036;2022-10-18T05:47:42;24.38;;;14.23;;
72427;SDS011;60419;48.880;18.036;2022-10-18T05:50:28;25.13;;;11.77;;
72427;SDS011;60419;48.880;18.036;2022-10-18T05:53:13;27.25;;;12.82;;
72427;SDS011;60419;48.880;18.036;2022-10-18T05:55:59;22.70;;;12.88;;
72427;SDS011;60419;48.880;18.036;2022-10-18T05:58:48;27.60;;;12.73;;
72427;SDS011;60419;48.880;18.036;2022-10-18T06:01:38;24.30;;;13.25;;
72427;SDS011;60419;48.880;18.036;2022-10-18T06:04:24;22.58;;;10.85;;
72427;SDS011;60419;48.880;18.036;2022-10-18T06:07:09;20.10;;;11.82;;
72427;SDS011;60419;48.880;18.036;2022-10-18T06:09:55;26.80;;;13.15;;
72427;SDS011;60419;48.880;18.036;2022-10-18T06:12:41;26.02;;;11.57;;
72427;SDS011;60419;48.880;18.036;2022-10-18T06:15:26;20.15;;;11.88;;
72427;SDS011;60419;48.880;18.036;2022-10-18T06:18:11;21.30;;;10.88;;
72427;SDS011;60419;48.880;18.036;2022-10-18T06:20:57;18.75;;;11.18;;
72427;SDS011;60419;48.880;18.036;2022-10-18T06:23:47;16.45;;;9.65;;
72427;SDS011;60419;48.880;18.036;2022-10-18T06:26:33;17.23;;;10.25;;
72427;SDS011;60419;48.880;18.036;2022-10-18T06:29:18;20.23;;;11.07;;
72427;SDS011;60419;48.880;18.036;2022-10-18T06:32:04;17.98;;;10.85;;
72427;SDS011;60419;48.880;18.036;2022-10-18T06:34:51;19.95;;;11.57;;
72427;SDS011;60419;48.880;18.036;2022-10-18T06:37:37;22.63;;;11.73;;
72427;SDS011;60419;48.880;18.036;2022-10-18T06:40:22;18.13;;;11.63;;
72427;SDS011;60419;48.880;18.036;2022-10-18T06:43:07;18.95;;;11.90;;
72427;SDS011;60419;48.880;18.036;2022-10-18T06:45:53;19.60;;;11.55;;
72427;SDS011;60419;48.880;18.036;2022-10-18T06:48:38;22.13;;;12.35;;
72427;SDS011;60419;48.880;18.036;2022-10-18T06:51:24;21.23;;;12.10;;
72427;SDS011;60419;48.880;18.036;2022-10-18T06:54:09;23.48;;;11.85;;
72427;SDS011;60419;48.880;18.036;2022-10-18T06:56:55;23.92;;;12.75;;
72427;SDS011;60419;48.880;18.036;2022-10-18T06:59:41;23.77;;;11.75;;
72427;SDS011;60419;48.880;18.036;2022-10-18T07:02:27;21.08;;;11.88;;
72427;SDS011;60419;48.880;18.036;2022-10-18T07:05:12;22.92;;;12.65;;
72427;SDS011;60419;48.880;18.036;2022-10-18T07:07:58;22.23;;;12.35;;
72427;SDS011;60419;48.880;18.036;2022-10-18T07:10:50;24.13;;;12.13;;
72427;SDS011;60419;48.880;18.036;2022-10-18T07:13:37;23.27;;;12.10;;
72427;SDS011;60419;48.880;18.036;2022-10-18T07:16:22;29.67;;;13.25;;
72427;SDS011;60419;48.880;18.036;2022-10-18T07:19:07;25.88;;;12.50;;
72427;SDS011;60419;48.880;18.036;2022-10-18T07:21:53;18.75;;;10.52;;
72427;SDS011;60419;48.880;18.036;2022-10-18T07:24:38;18.45;;;10.90;;
72427;SDS011;60419;48.880;18.036;2022-10-18T07:27:24;15.95;;;9.77;;
72427;SDS011;60419;48.880;18.036;2022-10-18T07:30:09;22.60;;;10.30;;
72427;SDS011;60419;48.880;18.036;2022-10-18T07:32:55;16.52;;;9.70;;
72427;SDS011;60419;48.880;18.036;2022-10-18T07:35:40;16.88;;;9.63;;
72427;SDS011;60419;48.880;18.036;2022-10-18T07:38:26;20.50;;;8.68;;
72427;SDS011;60419;48.880;18.036;2022-10-18T07:41:12;10.77;;;5.72;;
72427;SDS011;60419;48.880;18.036;2022-10-18T07:43:58;10.27;;;5.50;;
72427;SDS011;60419;48.880;18.036;2022-10-18T07:46:44;10.18;;;5.60;;
72427;SDS011;60419;48.880;18.036;2022-10-18T07:49:30;10.10;;;5.20;;
72427;SDS011;60419;48.880;18.036;2022-10-18T07:52:15;9.35;;;4.90;;
72427;SDS011;60419;48.880;18.036;2022-10-18T07:55:00;7.22;;;4.43;;
72427;SDS011;60419;48.880;18.036;2022-10-18T07:57:46;7.88;;;4.60;;
72427;SDS011;60419;48.880;18.036;2022-10-18T08:00:31;10.75;;;5.00;;
72427;SDS011;60419;48.880;18.036;2022-10-18T08:03:17;10.13;;;5.07;;
72427;SDS011;60419;48.880;18.036;2022-10-18T08:06:03;8.65;;;4.82;;
72427;SDS011;60419;48.880;18.036;2022-10-18T08:08:49;8.07;;;5.22;;
72427;SDS011;60419;48.880;18.036;2022-10-18T08:11:35;10.02;;;4.90;;
72427;SDS011;60419;48.880;18.036;2022-10-18T08:14:20;8.63;;;4.82;;
72427;SDS011;60419;48.880;18.036;2022-10-18T08:17:06;7.95;;;4.80;;
72427;SDS011;60419;48.880;18.036;2022-10-18T08:19:51;9.82;;;5.03;;
72427;SDS011;60419;48.880;18.036;2022-10-18T08:22:36;7.63;;;4.55;;
72427;SDS011;60419;48.880;18.036;2022-10-18T08:25:22;9.05;;;4.60;;
72427;SDS011;60419;48.880;18.036;2022-10-18T08:28:07;9.45;;;4.88;;
72427;SDS011;60419;48.880;18.036;2022-10-18T08:30:52;10.38;;;5.30;;
72427;SDS011;60419;48.880;18.036;2022-10-18T08:33:38;6.93;;;4.72;;
72427;SDS011;60419;48.880;18.036;2022-10-18T08:36:24;11.27;;;4.55;;
72427;SDS011;60419;48.880;18.036;2022-10-18T08:39:09;7.78;;;4.45;;
72427;SDS011;60419;48.880;18.036;2022-10-18T08:44:44;10.15;;;4.78;;
72427;SDS011;60419;48.880;18.036;2022-10-18T08:47:35;7.25;;;4.45;;
72427;SDS011;60419;48.880;18.036;2022-10-18T08:50:28;11.07;;;4.90;;
72427;SDS011;60419;48.880;18.036;2022-10-18T08:53:27;6.43;;;4.20;;
72427;SDS011;60419;48.880;18.036;2022-10-18T08:56:18;8.05;;;4.18;;
72427;SDS011;60419;48.880;18.036;2022-10-18T08:59:08;8.13;;;4.37;;
72427;SDS011;60419;48.880;18.036;2022-10-18T09:02:04;8.30;;;4.50;;
72427;SDS011;60419;48.880;18.036;2022-10-18T09:05:40;8.50;;;4.15;;
72427;SDS011;60419;48.880;18.036;2022-10-18T09:11:23;7.03;;;4.25;;
72427;SDS011;60419;48.880;18.036;2022-10-18T09:17:43;11.57;;;4.40;;
72427;SDS011;60419;48.880;18.036;2022-10-18T09:26:32;8.38;;;4.18;;
72427;SDS011;60419;48.880;18.036;2022-10-18T09:32:50;8.23;;;4.45;;
72427;SDS011;60419;48.880;18.036;2022-10-18T09:36:00;8.20;;;4.35;;
72427;SDS011;60419;48.880;18.036;2022-10-18T09:38:56;7.75;;;4.00;;
72427;SDS011;60419;48.880;18.036;2022-10-18T09:41:50;11.10;;;4.00;;
72427;SDS011;60419;48.880;18.036;2022-10-18T09:44:50;10.18;;;4.43;;
72427;SDS011;60419;48.880;18.036;2022-10-18T09:48:22;10.73;;;4.70;;
72427;SDS011;60419;48.880;18.036;2022-10-18T09:51:03;11.07;;;4.85;;
72427;SDS011;60419;48.880;18.036;2022-10-18T09:56:48;7.20;;;4.10;;
72427;SDS011;60419;48.880;18.036;2022-10-18T09:59:41;9.80;;;3.88;;
72427;SDS011;60419;48.880;18.036;2022-10-18T10:05:13;7.28;;;4.10;;
72427;SDS011;60419;48.880;18.036;2022-10-18T10:07:59;9.38;;;4.45;;
72427;SDS011;60419;48.880;18.036;2022-10-18T10:10:46;6.47;;;4.00;;
72427;SDS011;60419;48.880;18.036;2022-10-18T10:13:32;8.98;;;4.20;;
72427;SDS011;60419;48.880;18.036;2022-10-18T10:16:17;8.88;;;4.20;;
72427;SDS011;60419;48.880;18.036;2022-10-18T10:19:02;7.28;;;4.30;;
72427;SDS011;60419;48.880;18.036;2022-10-18T10:21:48;8.85;;;3.58;;
72427;SDS011;60419;48.880;18.036;2022-10-18T10:24:49;7.72;;;4.30;;
72427;SDS011;60419;48.880;18.036;2022-10-18T10:27:38;7.10;;;4.22;;
72427;SDS011;60419;48.880;18.036;2022-10-18T10:30:34;6.25;;;3.45;;
72427;SDS011;60419;48.880;18.036;2022-10-18T10:36:20;6.97;;;3.88;;
72427;SDS011;60419;48.880;18.036;2022-10-18T10:39:08;8.98;;;4.18;;
72427;SDS011;60419;48.880;18.036;2022-10-18T10:41:57;7.35;;;3.95;;
72427;SDS011;60419;48.880;18.036;2022-10-18T10:44:47;8.63;;;4.03;;
72427;SDS011;60419;48.880;18.036;2022-10-18T10:47:39;7.43;;;4.10;;
72427;SDS011;60419;48.880;18.036;2022-10-18T10:50:25;6.25;;;3.40;;
72427;SDS011;60419;48.880;18.036;2022-10-18T10:56:27;8.93;;;3.55;;
72427;SDS011;60419;48.880;18.036;2022-10-18T10:59:16;7.38;;;3.70;;
72427;SDS011;60419;48.880;18.036;2022-10-18T11:08:17;7.90;;;3.80;;
72427;SDS011;60419;48.880;18.036;2022-10-18T11:11:22;6.30;;;3.90;;
72427;SDS011;60419;48.880;18.036;2022-10-18T11:14:20;6.72;;;3.70;;
72427;SDS011;60419;48.880;18.036;2022-10-18T11:17:13;9.07;;;4.32;;
72427;SDS011;60419;48.880;18.036;2022-10-18T11:32:07;8.93;;;3.93;;
72427;SDS011;60419;48.880;18.036;2022-10-18T11:35:09;7.45;;;3.83;;
72427;SDS011;60419;48.880;18.036;2022-10-18T11:41:22;8.43;;;3.92;;
72427;SDS011;60419;48.880;18.036;2022-10-18T11:47:24;6.90;;;3.78;;
72427;SDS011;60419;48.880;18.036;2022-10-18T11:54:03;8.80;;;3.93;;
72427;SDS011;60419;48.880;18.036;2022-10-18T12:06:53;9.63;;;3.42;;
72427;SDS011;60419;48.880;18.036;2022-10-18T12:09:42;6.93;;;3.17;;
72427;SDS011;60419;48.880;18.036;2022-10-18T12:12:30;7.88;;;3.50;;
72427;SDS011;60419;48.880;18.036;2022-10-18T12:15:21;7.53;;;3.90;;
72427;SDS011;60419;48.880;18.036;2022-10-18T12:18:13;7.20;;;3.45;;
72427;SDS011;60419;48.880;18.036;2022-10-18T12:21:01;10.30;;;3.47;;
72427;SDS011;60419;48.880;18.036;2022-10-18T12:26:38;5.80;;;3.67;;
72427;SDS011;60419;48.880;18.036;2022-10-18T12:32:13;8.37;;;4.00;;
72427;SDS011;60419;48.880;18.036;2022-10-18T12:38:13;7.70;;;4.45;;
72427;SDS011;60419;48.880;18.036;2022-10-18T12:41:04;8.13;;;4.00;;
72427;SDS011;60419;48.880;18.036;2022-10-18T12:43:50;7.93;;;3.90;;
72427;SDS011;60419;48.880;18.036;2022-10-18T12:46:44;9.60;;;4.85;;
72427;SDS011;60419;48.880;18.036;2022-10-18T12:49:40;8.70;;;4.57;;
72427;SDS011;60419;48.880;18.036;2022-10-18T12:52:26;9.40;;;4.20;;
72427;SDS011;60419;48.880;18.036;2022-10-18T12:58:26;7.82;;;4.28;;
72427;SDS011;60419;48.880;18.036;2022-10-18T13:01:12;7.22;;;4.75;;
72427;SDS011;60419;48.880;18.036;2022-10-18T13:03:57;6.75;;;3.92;;
72427;SDS011;60419;48.880;18.036;2022-10-18T13:32:13;8.02;;;4.15;;
72427;SDS011;60419;48.880;18.036;2022-10-18T13:41:29;8.20;;;4.13;;
72427;SDS011;60419;48.880;18.036;2022-10-18T13:44:32;5.70;;;3.97;;
72427;SDS011;60419;48.880;18.036;2022-10-18T13:47:37;6.72;;;3.90;;
72427;SDS011;60419;48.880;18.036;2022-10-18T13:53:23;9.10;;;4.00;;
72427;SDS011;60419;48.880;18.036;2022-10-18T13:56:24;7.85;;;4.00;;
72427;SDS011;60419;48.880;18.036;2022-10-18T13:59:29;8.70;;;3.95;;
72427;SDS011;60419;48.880;18.036;2022-10-18T14:08:44;6.30;;;3.95;;
72427;SDS011;60419;48.880;18.036;2022-10-18T14:11:53;8.40;;;3.85;;
72427;SDS011;60419;48.880;18.036;2022-10-18T14:14:46;6.38;;;3.75;;
72427;SDS011;60419;48.880;18.036;2022-10-18T14:20:35;9.27;;;4.00;;
72427;SDS011;60419;48.880;18.036;2022-10-18T14:23:30;7.63;;;3.88;;
72427;SDS011;60419;48.880;18.036;2022-10-18T14:26:19;7.03;;;3.85;;
72427;SDS011;60419;48.880;18.036;2022-10-18T14:29:05;6.30;;;4.15;;
72427;SDS011;60419;48.880;18.036;2022-10-18T14:31:59;7.55;;;3.80;;
72427;SDS011;60419;48.880;18.036;2022-10-18T14:34:45;9.40;;;3.72;;
72427;SDS011;60419;48.880;18.036;2022-10-18T14:37:34;6.93;;;4.28;;
72427;SDS011;60419;48.880;18.036;2022-10-18T14:43:24;9.38;;;4.45;;
72427;SDS011;60419;48.880;18.036;2022-10-18T14:46:20;9.73;;;4.50;;
72427;SDS011;60419;48.880;18.036;2022-10-18T14:49:11;8.73;;;4.43;;
72427;SDS011;60419;48.880;18.036;2022-10-18T14:51:58;7.13;;;4.13;;
72427;SDS011;60419;48.880;18.036;2022-10-18T14:54:44;10.30;;;4.97;;
72427;SDS011;60419;48.880;18.036;2022-10-18T14:57:31;6.82;;;4.60;;
72427;SDS011;60419;48.880;18.036;2022-10-18T15:00:21;7.55;;;4.70;;
72427;SDS011;60419;48.880;18.036;2022-10-18T15:03:11;7.72;;;4.60;;
72427;SDS011;60419;48.880;18.036;2022-10-18T15:06:03;7.43;;;4.88;;
72427;SDS011;60419;48.880;18.036;2022-10-18T15:08:56;8.00;;;4.20;;
72427;SDS011;60419;48.880;18.036;2022-10-18T15:11:42;11.77;;;4.63;;
72427;SDS011;60419;48.880;18.036;2022-10-18T15:14:29;10.88;;;4.90;;
72427;SDS011;60419;48.880;18.036;2022-10-18T15:17:25;10.35;;;4.20;;
72427;SDS011;60419;48.880;18.036;2022-10-18T15:20:23;7.70;;;4.53;;
72427;SDS011;60419;48.880;18.036;2022-10-18T15:23:25;12.40;;;4.80;;
72427;SDS011;60419;48.880;18.036;2022-10-18T15:26:24;9.80;;;4.72;;
72427;SDS011;60419;48.880;18.036;2022-10-18T15:29:16;11.88;;;4.50;;
72427;SDS011;60419;48.880;18.036;2022-10-18T15:32:12;8.10;;;4.25;;
72427;SDS011;60419;48.880;18.036;2022-10-18T15:35:16;8.05;;;4.45;;
72427;SDS011;60419;48.880;18.036;2022-10-18T15:38:23;12.35;;;4.43;;
72427;SDS011;60419;48.880;18.036;2022-10-18T15:44:45;10.88;;;4.60;;
72427;SDS011;60419;48.880;18.036;2022-10-18T15:47:32;8.65;;;4.20;;
72427;SDS011;60419;48.880;18.036;2022-10-18T15:50:24;7.75;;;4.68;;
72427;SDS011;60419;48.880;18.036;2022-10-18T15:53:35;8.25;;;4.80;;
72427;SDS011;60419;48.880;18.036;2022-10-18T15:59:24;11.20;;;5.32;;
72427;SDS011;60419;48.880;18.036;2022-10-18T16:02:12;12.13;;;5.65;;
72427;SDS011;60419;48.880;18.036;2022-10-18T16:04:58;10.88;;;5.88;;
72427;SDS011;60419;48.880;18.036;2022-10-18T16:07:50;11.55;;;4.85;;
72427;SDS011;60419;48.880;18.036;2022-10-18T16:10:36;9.38;;;4.57;;
72427;SDS011;60419;48.880;18.036;2022-10-18T16:13:21;10.48;;;5.30;;
72427;SDS011;60419;48.880;18.036;2022-10-18T16:16:10;8.98;;;4.75;;
72427;SDS011;60419;48.880;18.036;2022-10-18T16:19:01;10.45;;;5.18;;
72427;SDS011;60419;48.880;18.036;2022-10-18T16:21:47;8.63;;;5.47;;
72427;SDS011;60419;48.880;18.036;2022-10-18T16:24:33;6.90;;;4.13;;
72427;SDS011;60419;48.880;18.036;2022-10-18T16:27:18;9.30;;;5.07;;
72427;SDS011;60419;48.880;18.036;2022-10-18T16:30:15;9.73;;;6.05;;
72427;SDS011;60419;48.880;18.036;2022-10-18T16:33:04;16.50;;;7.55;;
72427;SDS011;60419;48.880;18.036;2022-10-18T16:35:51;14.75;;;8.00;;
72427;SDS011;60419;48.880;18.036;2022-10-18T16:38:37;16.17;;;7.97;;
72427;SDS011;60419;48.880;18.036;2022-10-18T16:41:23;16.30;;;8.75;;
72427;SDS011;60419;48.880;18.036;2022-10-18T16:44:09;18.42;;;8.40;;
72427;SDS011;60419;48.880;18.036;2022-10-18T16:46:54;17.67;;;7.47;;
72427;SDS011;60419;48.880;18.036;2022-10-18T16:49:40;15.48;;;7.30;;
72427;SDS011;60419;48.880;18.036;2022-10-18T16:52:25;15.60;;;7.45;;
72427;SDS011;60419;48.880;18.036;2022-10-18T16:55:11;15.70;;;7.78;;
72427;SDS011;60419;48.880;18.036;2022-10-18T16:58:05;13.75;;;7.78;;
72427;SDS011;60419;48.880;18.036;2022-10-18T17:00:51;14.13;;;7.18;;
72427;SDS011;60419;48.880;18.036;2022-10-18T17:03:36;16.85;;;6.80;;
72427;SDS011;60419;48.880;18.036;2022-10-18T17:06:31;15.90;;;8.27;;
72427;SDS011;60419;48.880;18.036;2022-10-18T17:09:17;13.65;;;7.80;;
72427;SDS011;60419;48.880;18.036;2022-10-18T17:12:02;12.98;;;7.72;;
72427;SDS011;60419;48.880;18.036;2022-10-18T17:14:48;12.70;;;7.40;;
72427;SDS011;60419;48.880;18.036;2022-10-18T17:17:34;14.07;;;7.07;;
72427;SDS011;60419;48.880;18.036;2022-10-18T17:20:24;11.88;;;6.95;;
72427;SDS011;60419;48.880;18.036;2022-10-18T17:23:10;13.52;;;7.63;;
72427;SDS011;60419;48.880;18.036;2022-10-18T17:25:56;16.85;;;8.23;;
72427;SDS011;60419;48.880;18.036;2022-10-18T17:28:41;15.90;;;8.35;;
72427;SDS011;60419;48.880;18.036;2022-10-18T17:31:28;14.70;;;8.75;;
72427;SDS011;60419;48.880;18.036;2022-10-18T17:34:14;13.18;;;8.00;;
72427;SDS011;60419;48.880;18.036;2022-10-18T17:37:02;9.25;;;5.30;;
72427;SDS011;60419;48.880;18.036;2022-10-18T17:39:48;13.70;;;6.68;;
72427;SDS011;60419;48.880;18.036;2022-10-18T17:42:34;14.93;;;7.28;;
72427;SDS011;60419;48.880;18.036;2022-10-18T17:45:19;16.15;;;9.52;;
72427;SDS011;60419;48.880;18.036;2022-10-18T17:48:05;11.50;;;7.22;;
72427;SDS011;60419;48.880;18.036;2022-10-18T17:50:50;13.13;;;7.45;;
72427;SDS011;60419;48.880;18.036;2022-10-18T17:53:36;26.85;;;8.20;;
72427;SDS011;60419;48.880;18.036;2022-10-18T17:56:22;12.05;;;7.95;;
72427;SDS011;60419;48.880;18.036;2022-10-18T17:59:07;16.77;;;9.77;;
72427;SDS011;60419;48.880;18.036;2022-10-18T18:01:53;18.20;;;9.27;;
72427;SDS011;60419;48.880;18.036;2022-10-18T18:04:38;20.23;;;10.00;;
72427;SDS011;60419;48.880;18.036;2022-10-18T18:07:23;18.75;;;9.55;;
72427;SDS011;60419;48.880;18.036;2022-10-18T18:10:09;16.13;;;9.40;;
72427;SDS011;60419;48.880;18.036;2022-10-18T18:12:54;15.80;;;9.48;;
72427;SDS011;60419;48.880;18.036;2022-10-18T18:15:40;17.40;;;9.50;;
72427;SDS011;60419;48.880;18.036;2022-10-18T18:18:25;17.00;;;9.20;;
72427;SDS011;60419;48.880;18.036;2022-10-18T18:21:10;13.82;;;8.60;;
72427;SDS011;60419;48.880;18.036;2022-10-18T18:23:56;20.33;;;11.13;;
72427;SDS011;60419;48.880;18.036;2022-10-18T18:26:41;14.38;;;8.98;;
72427;SDS011;60419;48.880;18.036;2022-10-18T18:29:27;17.58;;;10.15;;
72427;SDS011;60419;48.880;18.036;2022-10-18T18:32:13;15.55;;;9.48;;
72427;SDS011;60419;48.880;18.036;2022-10-18T18:34:59;15.05;;;8.88;;
72427;SDS011;60419;48.880;18.036;2022-10-18T18:37:48;14.00;;;8.88;;
72427;SDS011;60419;48.880;18.036;2022-10-18T18:40:34;16.92;;;9.15;;
72427;SDS011;60419;48.880;18.036;2022-10-18T18:43:19;15.82;;;9.25;;
72427;SDS011;60419;48.880;18.036;2022-10-18T18:46:05;13.13;;;8.75;;
72427;SDS011;60419;48.880;18.036;2022-10-18T18:48:51;17.15;;;8.57;;
72427;SDS011;60419;48.880;18.036;2022-10-18T18:51:36;15.10;;;9.15;;
72427;SDS011;60419;48.880;18.036;2022-10-18T18:54:24;14.20;;;8.43;;
72427;SDS011;60419;48.880;18.036;2022-10-18T18:57:09;16.40;;;9.15;;
72427;SDS011;60419;48.880;18.036;2022-10-18T18:59:54;15.05;;;9.52;;
72427;SDS011;60419;48.880;18.036;2022-10-18T19:02:40;17.33;;;8.93;;